sensor_id;sensor_type;location;lat;lon;timestamp;pressure;altitude;pressure_sealevel;temperature;humidity
59475;BME280;45288;51.136;16.928;2023-12-29T00:00:28;99922.25;;;7.18;100.00
59475;BME280;45288;51.136;16.928;2023-12-29T00:02:53;99923.00;;;7.20;100.00
59475;BME280;45288;51.136;16.928;2023-12-29T00:05:19;99924.22;;;7.15;100.00
59475;BME280;45288;51.136;16.928;2023-12-29T00:07:45;99920.41;;;7.06;100.00
59475;BME280;45288;51.136;16.928;2023-12-29T00:10:11;99910.31;;;7.14;100.00
59475;BME280;45288;51.136;16.928;2023-12-29T00:12:40;99912.44;;;6.95;100.00
59475;BME280;45288;51.136;16.928;2023-12-29T00:15:06;99906.59;;;7.18;100.00
59475;BME280;45288;51.136;16.928;2023-12-29T00:17:32;99895.47;;;7.29;100.00
59475;BME280;45288;51.136;16.928;2023-12-29T00:20:00;99896.16;;;7.46;100.00
59475;BME280;45288;51.136;16.928;2023-12-29T00:22:27;99889.53;;;7.40;100.00
59475;BME280;45288;51.136;16.928;2023-12-29T00:24:53;99898.75;;;7.46;100.00
59475;BME280;45288;51.136;16.928;2023-12-29T00:27:18;99886.66;;;7.45;100.00
59475;BME280;45288;51.136;16.928;2023-12-29T00:29:44;99895.25;;;7.32;100.00
59475;BME280;45288;51.136;16.928;2023-12-29T00:32:10;99888.88;;;7.24;100.00
59475;BME280;45288;51.136;16.928;2023-12-29T00:34:36;99888.38;;;7.31;100.00
59475;BME280;45288;51.136;16.928;2023-12-29T00:37:03;99880.97;;;7.38;100.00
59475;BME280;45288;51.136;16.928;2023-12-29T00:39:30;99882.91;;;7.21;100.00
59475;BME280;45288;51.136;16.928;2023-12-29T00:41:56;99886.28;;;7.09;100.00
59475;BME280;45288;51.136;16.928;2023-12-29T00:44:23;99884.63;;;7.08;100.00
59475;BME280;45288;51.136;16.928;2023-12-29T00:46:49;99890.47;;;7.12;100.00
59475;BME280;45288;51.136;16.928;2023-12-29T00:49:15;99879.81;;;7.15;100.00
59475;BME280;45288;51.136;16.928;2023-12-29T00:51:41;99889.69;;;6.97;100.00
59475;BME280;45288;51.136;16.928;2023-12-29T00:54:07;99883.13;;;7.04;100.00
59475;BME280;45288;51.136;16.928;2023-12-29T00:56:33;99873.81;;;7.00;100.00
59475;BME280;45288;51.136;16.928;2023-12-29T00:58:59;99870.63;;;7.09;100.00
59475;BME280;45288;51.136;16.928;2023-12-29T01:01:25;99868.03;;;7.36;100.00
59475;BME280;45288;51.136;16.928;2023-12-29T01:03:51;99869.97;;;7.33;100.00
59475;BME280;45288;51.136;16.928;2023-12-29T01:06:20;99872.78;;;7.30;100.00
59475;BME280;45288;51.136;16.928;2023-12-29T01:08:47;99867.28;;;7.34;100.00
59475;BME280;45288;51.136;16.928;2023-12-29T01:11:13;99876.09;;;7.46;100.00
59475;BME280;45288;51.136;16.928;2023-12-29T01:13:39;99867.78;;;7.54;100.00
59475;BME280;45288;51.136;16.928;2023-12-29T01:16:05;99872.63;;;7.46;100.00
59475;BME280;45288;51.136;16.928;2023-12-29T01:18:32;99870.88;;;7.46;100.00
59475;BME280;45288;51.136;16.928;2023-12-29T01:20:57;99872.88;;;7.55;100.00
59475;BME280;45288;51.136;16.928;2023-12-29T01:23:23;99873.72;;;7.56;100.00
59475;BME280;45288;51.136;16.928;2023-12-29T01:25:49;99871.63;;;7.61;100.00
59475;BME280;45288;51.136;16.928;2023-12-29T01:28:15;99851.84;;;7.44;100.00
59475;BME280;45288;51.136;16.928;2023-12-29T01:30:41;99858.44;;;7.22;100.00
59475;BME280;45288;51.136;16.928;2023-12-29T01:33:07;99854.84;;;7.38;100.00
59475;BME280;45288;51.136;16.928;2023-12-29T01:35:33;99852.81;;;7.16;100.00
59475;BME280;45288;51.136;16.928;2023-12-29T01:37:58;99849.44;;;7.14;100.00
59475;BME280;45288;51.136;16.928;2023-12-29T01:40:24;99850.50;;;7.38;100.00
59475;BME280;45288;51.136;16.928;2023-12-29T01:42:50;99845.97;;;7.40;100.00
59475;BME280;45288;51.136;16.928;2023-12-29T01:45:21;99849.34;;;7.15;100.00
59475;BME280;45288;51.136;16.928;2023-12-29T01:47:49;99848.91;;;7.09;100.00
59475;BME280;45288;51.136;16.928;2023-12-29T01:50:16;99864.28;;;7.13;100.00
59475;BME280;45288;51.136;16.928;2023-12-29T01:52:43;99858.84;;;6.89;100.00
59475;BME280;45288;51.136;16.928;2023-12-29T01:55:11;99848.97;;;6.80;100.00
59475;BME280;45288;51.136;16.928;2023-12-29T01:57:38;99854.81;;;6.84;100.00
59475;BME280;45288;51.136;16.928;2023-12-29T02:00:05;99853.84;;;6.72;100.00
59475;BME280;45288;51.136;16.928;2023-12-29T02:02:38;99854.22;;;7.07;100.00
59475;BME280;45288;51.136;16.928;2023-12-29T02:05:05;99849.69;;;6.96;100.00
59475;BME280;45288;51.136;16.928;2023-12-29T02:07:32;99850.34;;;6.86;100.00
59475;BME280;45288;51.136;16.928;2023-12-29T02:09:58;99849.47;;;6.99;100.00
59475;BME280;45288;51.136;16.928;2023-12-29T02:12:25;99849.78;;;7.22;100.00
59475;BME280;45288;51.136;16.928;2023-12-29T02:14:52;99846.91;;;7.12;100.00
59475;BME280;45288;51.136;16.928;2023-12-29T02:17:22;99846.56;;;7.04;100.00
59475;BME280;45288;51.136;16.928;2023-12-29T02:19:51;99834.97;;;6.95;100.00
59475;BME280;45288;51.136;16.928;2023-12-29T02:22:18;99842.66;;;6.84;100.00
59475;BME280;45288;51.136;16.928;2023-12-29T02:24:48;99833.41;;;6.78;100.00
59475;BME280;45288;51.136;16.928;2023-12-29T02:30:29;99814.00;;;6.97;100.00
59475;BME280;45288;51.136;16.928;2023-12-29T02:33:03;99820.13;;;6.96;100.00
59475;BME280;45288;51.136;16.928;2023-12-29T02:35:34;99806.00;;;7.13;100.00
59475;BME280;45288;51.136;16.928;2023-12-29T02:38:01;99809.75;;;6.82;100.00
59475;BME280;45288;51.136;16.928;2023-12-29T02:40:28;99808.88;;;6.95;100.00
59475;BME280;45288;51.136;16.928;2023-12-29T02:42:53;99802.06;;;6.93;100.00
59475;BME280;45288;51.136;16.928;2023-12-29T02:45:20;99794.16;;;6.94;100.00
59475;BME280;45288;51.136;16.928;2023-12-29T02:47:46;99786.13;;;6.97;100.00
59475;BME280;45288;51.136;16.928;2023-12-29T02:50:12;99786.50;;;6.91;100.00
59475;BME280;45288;51.136;16.928;2023-12-29T02:52:38;99785.72;;;7.04;100.00
59475;BME280;45288;51.136;16.928;2023-12-29T02:55:04;99800.34;;;7.06;100.00
59475;BME280;45288;51.136;16.928;2023-12-29T02:57:30;99787.66;;;7.27;100.00
59475;BME280;45288;51.136;16.928;2023-12-29T02:59:56;99782.06;;;7.46;100.00
59475;BME280;45288;51.136;16.928;2023-12-29T03:02:23;99774.44;;;7.56;100.00
59475;BME280;45288;51.136;16.928;2023-12-29T03:04:49;99767.22;;;7.34;100.00
59475;BME280;45288;51.136;16.928;2023-12-29T03:07:16;99776.78;;;7.20;100.00
59475;BME280;45288;51.136;16.928;2023-12-29T03:09:42;99769.00;;;7.06;100.00
59475;BME280;45288;51.136;16.928;2023-12-29T03:12:08;99773.19;;;7.09;100.00
59475;BME280;45288;51.136;16.928;2023-12-29T03:14:33;99765.47;;;7.07;100.00
59475;BME280;45288;51.136;16.928;2023-12-29T03:17:01;99766.84;;;7.13;100.00
59475;BME280;45288;51.136;16.928;2023-12-29T03:19:27;99753.34;;;7.06;100.00
59475;BME280;45288;51.136;16.928;2023-12-29T03:21:53;99757.09;;;6.75;100.00
59475;BME280;45288;51.136;16.928;2023-12-29T03:24:20;99762.28;;;6.89;100.00
59475;BME280;45288;51.136;16.928;2023-12-29T03:26:48;99763.38;;;6.72;100.00
59475;BME280;45288;51.136;16.928;2023-12-29T03:29:14;99750.81;;;6.65;100.00
59475;BME280;45288;51.136;16.928;2023-12-29T03:31:40;99748.44;;;6.74;100.00
59475;BME280;45288;51.136;16.928;2023-12-29T03:34:06;99756.91;;;7.05;100.00
59475;BME280;45288;51.136;16.928;2023-12-29T03:36:32;99753.97;;;6.97;100.00
59475;BME280;45288;51.136;16.928;2023-12-29T03:38:58;99754.56;;;6.88;100.00
59475;BME280;45288;51.136;16.928;2023-12-29T03:41:24;99753.31;;;6.93;100.00
59475;BME280;45288;51.136;16.928;2023-12-29T03:43:50;99752.72;;;7.03;100.00
59475;BME280;45288;51.136;16.928;2023-12-29T03:46:20;99749.19;;;7.16;100.00
59475;BME280;45288;51.136;16.928;2023-12-29T03:48:46;99746.69;;;7.15;100.00
59475;BME280;45288;51.136;16.928;2023-12-29T03:51:13;99743.53;;;6.97;100.00
59475;BME280;45288;51.136;16.928;2023-12-29T03:53:40;99753.22;;;6.68;100.00
59475;BME280;45288;51.136;16.928;2023-12-29T03:56:07;99748.03;;;7.08;100.00
59475;BME280;45288;51.136;16.928;2023-12-29T03:58:35;99735.00;;;6.81;100.00
59475;BME280;45288;51.136;16.928;2023-12-29T04:01:01;99740.34;;;6.79;100.00
59475;BME280;45288;51.136;16.928;2023-12-29T04:03:27;99734.81;;;6.84;100.00
59475;BME280;45288;51.136;16.928;2023-12-29T04:05:53;99730.72;;;6.80;100.00
59475;BME280;45288;51.136;16.928;2023-12-29T04:08:19;99718.75;;;6.90;100.00
59475;BME280;45288;51.136;16.928;2023-12-29T04:10:45;99730.53;;;6.83;100.00
59475;BME280;45288;51.136;16.928;2023-12-29T04:13:11;99728.03;;;6.94;100.00
59475;BME280;45288;51.136;16.928;2023-12-29T04:15:37;99716.66;;;6.82;100.00
59475;BME280;45288;51.136;16.928;2023-12-29T04:18:03;99716.84;;;7.19;100.00
59475;BME280;45288;51.136;16.928;2023-12-29T04:20:29;99713.88;;;6.98;100.00
59475;BME280;45288;51.136;16.928;2023-12-29T04:22:55;99716.81;;;7.06;100.00
59475;BME280;45288;51.136;16.928;2023-12-29T04:25:21;99713.78;;;7.12;100.00
59475;BME280;45288;51.136;16.928;2023-12-29T04:27:47;99706.47;;;6.92;100.00
59475;BME280;45288;51.136;16.928;2023-12-29T04:30:13;99695.28;;;6.90;100.00
59475;BME280;45288;51.136;16.928;2023-12-29T04:32:40;99709.78;;;6.94;100.00
59475;BME280;45288;51.136;16.928;2023-12-29T04:35:06;99695.81;;;6.68;100.00
59475;BME280;45288;51.136;16.928;2023-12-29T04:37:32;99702.72;;;6.69;100.00
59475;BME280;45288;51.136;16.928;2023-12-29T04:39:58;99700.53;;;6.75;100.00
59475;BME280;45288;51.136;16.928;2023-12-29T04:42:23;99696.25;;;7.14;100.00
59475;BME280;45288;51.136;16.928;2023-12-29T04:44:49;99695.81;;;6.95;100.00
59475;BME280;45288;51.136;16.928;2023-12-29T04:47:15;99692.25;;;6.96;100.00
59475;BME280;45288;51.136;16.928;2023-12-29T04:49:42;99703.28;;;6.74;100.00
59475;BME280;45288;51.136;16.928;2023-12-29T04:52:08;99694.88;;;6.96;100.00
59475;BME280;45288;51.136;16.928;2023-12-29T04:54:34;99693.31;;;7.06;100.00
59475;BME280;45288;51.136;16.928;2023-12-29T04:57:00;99692.56;;;7.04;100.00
59475;BME280;45288;51.136;16.928;2023-12-29T04:59:25;99698.00;;;7.01;100.00
59475;BME280;45288;51.136;16.928;2023-12-29T05:01:51;99696.97;;;7.04;100.00
59475;BME280;45288;51.136;16.928;2023-12-29T05:04:17;99693.78;;;6.86;100.00
59475;BME280;45288;51.136;16.928;2023-12-29T05:06:42;99686.47;;;6.78;100.00
59475;BME280;45288;51.136;16.928;2023-12-29T05:09:08;99683.31;;;6.73;100.00
59475;BME280;45288;51.136;16.928;2023-12-29T05:11:34;99686.66;;;6.75;100.00
59475;BME280;45288;51.136;16.928;2023-12-29T05:14:00;99679.38;;;6.80;100.00
59475;BME280;45288;51.136;16.928;2023-12-29T05:16:25;99677.28;;;6.72;100.00
59475;BME280;45288;51.136;16.928;2023-12-29T05:18:51;99684.63;;;6.93;100.00
59475;BME280;45288;51.136;16.928;2023-12-29T05:21:18;99685.91;;;7.00;100.00
59475;BME280;45288;51.136;16.928;2023-12-29T05:23:44;99685.50;;;7.06;100.00
59475;BME280;45288;51.136;16.928;2023-12-29T05:26:14;99692.38;;;7.07;100.00
59475;BME280;45288;51.136;16.928;2023-12-29T05:28:40;99693.25;;;7.20;100.00
59475;BME280;45288;51.136;16.928;2023-12-29T05:31:06;99684.56;;;7.46;100.00
59475;BME280;45288;51.136;16.928;2023-12-29T05:33:33;99686.28;;;7.47;100.00
59475;BME280;45288;51.136;16.928;2023-12-29T05:36:04;99685.91;;;7.77;100.00
59475;BME280;45288;51.136;16.928;2023-12-29T05:38:31;99680.91;;;7.74;100.00
59475;BME280;45288;51.136;16.928;2023-12-29T05:40:57;99682.38;;;7.78;100.00
59475;BME280;45288;51.136;16.928;2023-12-29T05:43:23;99688.34;;;7.41;100.00
59475;BME280;45288;51.136;16.928;2023-12-29T05:45:48;99681.44;;;7.53;100.00
59475;BME280;45288;51.136;16.928;2023-12-29T05:48:16;99676.03;;;7.56;100.00
59475;BME280;45288;51.136;16.928;2023-12-29T05:50:42;99673.59;;;7.40;100.00
59475;BME280;45288;51.136;16.928;2023-12-29T05:53:07;99681.97;;;7.46;100.00
59475;BME280;45288;51.136;16.928;2023-12-29T05:55:33;99678.13;;;7.26;100.00
59475;BME280;45288;51.136;16.928;2023-12-29T05:57:59;99680.91;;;7.35;100.00
59475;BME280;45288;51.136;16.928;2023-12-29T06:00:25;99674.59;;;6.99;100.00
59475;BME280;45288;51.136;16.928;2023-12-29T06:02:51;99683.09;;;7.16;100.00
59475;BME280;45288;51.136;16.928;2023-12-29T06:05:17;99674.47;;;7.41;100.00
59475;BME280;45288;51.136;16.928;2023-12-29T06:07:43;99686.66;;;7.40;100.00
59475;BME280;45288;51.136;16.928;2023-12-29T06:10:09;99674.56;;;7.27;100.00
59475;BME280;45288;51.136;16.928;2023-12-29T06:12:35;99669.84;;;7.45;100.00
59475;BME280;45288;51.136;16.928;2023-12-29T06:15:02;99662.31;;;7.40;100.00
59475;BME280;45288;51.136;16.928;2023-12-29T06:17:30;99666.28;;;7.46;100.00
59475;BME280;45288;51.136;16.928;2023-12-29T06:19:56;99655.84;;;7.46;100.00
59475;BME280;45288;51.136;16.928;2023-12-29T06:22:22;99655.13;;;7.56;100.00
59475;BME280;45288;51.136;16.928;2023-12-29T06:24:48;99660.75;;;7.50;100.00
59475;BME280;45288;51.136;16.928;2023-12-29T06:27:13;99660.22;;;7.58;100.00
59475;BME280;45288;51.136;16.928;2023-12-29T06:29:41;99663.16;;;7.66;100.00
59475;BME280;45288;51.136;16.928;2023-12-29T06:32:08;99661.72;;;7.36;100.00
59475;BME280;45288;51.136;16.928;2023-12-29T06:34:34;99661.06;;;7.33;100.00
59475;BME280;45288;51.136;16.928;2023-12-29T06:36:59;99662.53;;;7.50;100.00
59475;BME280;45288;51.136;16.928;2023-12-29T06:39:26;99656.88;;;7.69;100.00
59475;BME280;45288;51.136;16.928;2023-12-29T06:41:52;99662.28;;;7.91;100.00
59475;BME280;45288;51.136;16.928;2023-12-29T06:44:17;99662.50;;;7.88;100.00
59475;BME280;45288;51.136;16.928;2023-12-29T06:46:43;99659.91;;;7.75;100.00
59475;BME280;45288;51.136;16.928;2023-12-29T06:49:10;99656.97;;;7.80;100.00
59475;BME280;45288;51.136;16.928;2023-12-29T06:51:36;99656.22;;;7.91;100.00
59475;BME280;45288;51.136;16.928;2023-12-29T06:54:04;99666.72;;;7.65;100.00
59475;BME280;45288;51.136;16.928;2023-12-29T06:56:30;99662.97;;;7.56;100.00
59475;BME280;45288;51.136;16.928;2023-12-29T06:58:56;99670.16;;;7.53;100.00
59475;BME280;45288;51.136;16.928;2023-12-29T07:01:21;99673.41;;;7.56;100.00
59475;BME280;45288;51.136;16.928;2023-12-29T07:03:47;99675.50;;;7.51;100.00
59475;BME280;45288;51.136;16.928;2023-12-29T07:06:13;99672.16;;;7.75;100.00
59475;BME280;45288;51.136;16.928;2023-12-29T07:08:39;99684.34;;;7.87;100.00
59475;BME280;45288;51.136;16.928;2023-12-29T07:11:09;99678.22;;;7.62;100.00
59475;BME280;45288;51.136;16.928;2023-12-29T07:13:36;99677.47;;;7.60;100.00
59475;BME280;45288;51.136;16.928;2023-12-29T07:16:02;99676.34;;;7.64;100.00
59475;BME280;45288;51.136;16.928;2023-12-29T07:18:28;99677.03;;;7.79;100.00
59475;BME280;45288;51.136;16.928;2023-12-29T07:20:54;99680.88;;;7.99;100.00
59475;BME280;45288;51.136;16.928;2023-12-29T07:23:19;99681.09;;;7.96;100.00
59475;BME280;45288;51.136;16.928;2023-12-29T07:25:47;99678.41;;;7.85;100.00
59475;BME280;45288;51.136;16.928;2023-12-29T07:28:13;99680.84;;;8.12;100.00
59475;BME280;45288;51.136;16.928;2023-12-29T07:30:39;99677.41;;;8.12;100.00
59475;BME280;45288;51.136;16.928;2023-12-29T07:33:05;99673.53;;;8.04;100.00
59475;BME280;45288;51.136;16.928;2023-12-29T07:35:31;99669.00;;;8.19;100.00
59475;BME280;45288;51.136;16.928;2023-12-29T07:37:57;99678.63;;;8.19;100.00
59475;BME280;45288;51.136;16.928;2023-12-29T07:40:23;99668.63;;;8.00;100.00
59475;BME280;45288;51.136;16.928;2023-12-29T07:42:48;99661.19;;;8.06;100.00
59475;BME280;45288;51.136;16.928;2023-12-29T07:45:16;99660.19;;;7.96;100.00
59475;BME280;45288;51.136;16.928;2023-12-29T07:47:43;99659.19;;;7.60;100.00
59475;BME280;45288;51.136;16.928;2023-12-29T07:50:09;99653.13;;;7.73;100.00
59475;BME280;45288;51.136;16.928;2023-12-29T07:52:35;99649.25;;;7.65;100.00
59475;BME280;45288;51.136;16.928;2023-12-29T07:55:01;99658.13;;;7.63;100.00
59475;BME280;45288;51.136;16.928;2023-12-29T07:57:26;99660.66;;;7.64;100.00
59475;BME280;45288;51.136;16.928;2023-12-29T07:59:52;99657.28;;;7.88;100.00
59475;BME280;45288;51.136;16.928;2023-12-29T08:02:18;99653.94;;;7.86;100.00
59475;BME280;45288;51.136;16.928;2023-12-29T08:04:43;99648.41;;;7.78;100.00
59475;BME280;45288;51.136;16.928;2023-12-29T08:07:12;99634.31;;;8.04;100.00
59475;BME280;45288;51.136;16.928;2023-12-29T08:09:37;99639.50;;;7.93;100.00
59475;BME280;45288;51.136;16.928;2023-12-29T08:12:04;99644.84;;;7.79;100.00
59475;BME280;45288;51.136;16.928;2023-12-29T08:14:30;99645.31;;;7.97;100.00
59475;BME280;45288;51.136;16.928;2023-12-29T08:16:55;99654.19;;;8.31;100.00
59475;BME280;45288;51.136;16.928;2023-12-29T08:19:22;99662.09;;;8.55;100.00
59475;BME280;45288;51.136;16.928;2023-12-29T08:21:48;99652.44;;;8.44;100.00
59475;BME280;45288;51.136;16.928;2023-12-29T08:24:14;99659.81;;;8.50;100.00
59475;BME280;45288;51.136;16.928;2023-12-29T08:26:44;99658.31;;;8.59;100.00
59475;BME280;45288;51.136;16.928;2023-12-29T08:29:11;99660.59;;;8.40;100.00
59475;BME280;45288;51.136;16.928;2023-12-29T08:31:37;99662.44;;;8.38;100.00
59475;BME280;45288;51.136;16.928;2023-12-29T08:34:02;99671.44;;;8.46;100.00
59475;BME280;45288;51.136;16.928;2023-12-29T08:36:28;99653.69;;;8.63;100.00
59475;BME280;45288;51.136;16.928;2023-12-29T08:38:54;99657.91;;;8.77;100.00
59475;BME280;45288;51.136;16.928;2023-12-29T08:41:20;99656.19;;;8.64;100.00
59475;BME280;45288;51.136;16.928;2023-12-29T08:43:45;99655.09;;;8.56;100.00
59475;BME280;45288;51.136;16.928;2023-12-29T08:46:11;99665.00;;;8.63;100.00
59475;BME280;45288;51.136;16.928;2023-12-29T08:48:37;99651.94;;;8.74;100.00
59475;BME280;45288;51.136;16.928;2023-12-29T08:51:03;99656.28;;;8.87;100.00
59475;BME280;45288;51.136;16.928;2023-12-29T08:53:29;99654.75;;;8.95;100.00
59475;BME280;45288;51.136;16.928;2023-12-29T08:55:59;99664.53;;;9.05;100.00
59475;BME280;45288;51.136;16.928;2023-12-29T08:58:25;99667.66;;;9.10;100.00
59475;BME280;45288;51.136;16.928;2023-12-29T09:00:50;99666.25;;;9.17;100.00
59475;BME280;45288;51.136;16.928;2023-12-29T09:03:16;99663.88;;;9.25;100.00
59475;BME280;45288;51.136;16.928;2023-12-29T09:05:42;99675.06;;;9.27;100.00
59475;BME280;45288;51.136;16.928;2023-12-29T09:08:08;99661.66;;;9.43;100.00
59475;BME280;45288;51.136;16.928;2023-12-29T09:10:34;99663.44;;;9.54;100.00
59475;BME280;45288;51.136;16.928;2023-12-29T09:12:59;99668.91;;;9.62;100.00
59475;BME280;45288;51.136;16.928;2023-12-29T09:15:25;99668.31;;;9.70;100.00
59475;BME280;45288;51.136;16.928;2023-12-29T09:17:51;99663.44;;;9.76;100.00
59475;BME280;45288;51.136;16.928;2023-12-29T09:20:17;99662.03;;;9.83;100.00
59475;BME280;45288;51.136;16.928;2023-12-29T09:22:42;99663.19;;;9.91;100.00
59475;BME280;45288;51.136;16.928;2023-12-29T09:25:08;99664.28;;;9.99;100.00
59475;BME280;45288;51.136;16.928;2023-12-29T09:27:34;99668.44;;;10.02;100.00
59475;BME280;45288;51.136;16.928;2023-12-29T09:30:03;99664.34;;;10.09;100.00
59475;BME280;45288;51.136;16.928;2023-12-29T09:32:30;99662.44;;;10.22;100.00
59475;BME280;45288;51.136;16.928;2023-12-29T09:34:56;99662.94;;;10.28;100.00
59475;BME280;45288;51.136;16.928;2023-12-29T09:37:22;99666.25;;;10.30;100.00
59475;BME280;45288;51.136;16.928;2023-12-29T09:39:48;99675.44;;;10.35;100.00
59475;BME280;45288;51.136;16.928;2023-12-29T09:42:20;99675.16;;;10.50;100.00
59475;BME280;45288;51.136;16.928;2023-12-29T09:44:50;99679.22;;;10.54;100.00
59475;BME280;45288;51.136;16.928;2023-12-29T09:47:24;99672.25;;;10.64;98.43
59475;BME280;45288;51.136;16.928;2023-12-29T09:49:51;99675.34;;;10.69;97.10
59475;BME280;45288;51.136;16.928;2023-12-29T09:52:21;99683.53;;;10.76;97.68
59475;BME280;45288;51.136;16.928;2023-12-29T09:54:51;99676.56;;;10.86;96.47
59475;BME280;45288;51.136;16.928;2023-12-29T09:57:18;99683.09;;;10.91;95.47
59475;BME280;45288;51.136;16.928;2023-12-29T09:59:44;99680.47;;;10.91;95.43
59475;BME280;45288;51.136;16.928;2023-12-29T10:02:16;99691.00;;;11.12;95.43
59475;BME280;45288;51.136;16.928;2023-12-29T10:04:42;99687.88;;;11.19;95.10
59475;BME280;45288;51.136;16.928;2023-12-29T10:07:11;99685.69;;;11.24;94.49
59475;BME280;45288;51.136;16.928;2023-12-29T10:09:39;99665.13;;;11.29;94.07
59475;BME280;45288;51.136;16.928;2023-12-29T10:12:09;99677.88;;;11.33;94.61
59475;BME280;45288;51.136;16.928;2023-12-29T10:14:43;99685.25;;;11.40;93.90
59475;BME280;45288;51.136;16.928;2023-12-29T10:20:25;99685.34;;;11.38;91.54
59475;BME280;45288;51.136;16.928;2023-12-29T10:23:06;99679.28;;;11.38;92.49
59475;BME280;45288;51.136;16.928;2023-12-29T10:25:34;99678.63;;;11.45;91.31
59475;BME280;45288;51.136;16.928;2023-12-29T10:28:01;99673.63;;;11.42;91.53
59475;BME280;45288;51.136;16.928;2023-12-29T10:30:28;99657.59;;;11.45;91.74
59475;BME280;45288;51.136;16.928;2023-12-29T10:32:54;99662.97;;;11.65;91.59
59475;BME280;45288;51.136;16.928;2023-12-29T10:35:20;99657.91;;;12.23;89.18
59475;BME280;45288;51.136;16.928;2023-12-29T10:37:46;99664.06;;;12.53;89.89
59475;BME280;45288;51.136;16.928;2023-12-29T10:40:19;99661.28;;;12.54;85.45
59475;BME280;45288;51.136;16.928;2023-12-29T10:42:52;99675.53;;;12.32;84.32
59475;BME280;45288;51.136;16.928;2023-12-29T10:45:18;99665.47;;;11.97;86.83
59475;BME280;45288;51.136;16.928;2023-12-29T10:47:44;99658.38;;;11.88;88.03
59475;BME280;45288;51.136;16.928;2023-12-29T10:50:10;99669.09;;;12.15;87.51
59475;BME280;45288;51.136;16.928;2023-12-29T10:52:36;99677.50;;;11.99;88.63
59475;BME280;45288;51.136;16.928;2023-12-29T10:55:09;99666.72;;;12.03;92.69
59475;BME280;45288;51.136;16.928;2023-12-29T10:57:36;99653.78;;;11.90;87.13
59475;BME280;45288;51.136;16.928;2023-12-29T11:00:03;99665.19;;;11.90;87.42
59475;BME280;45288;51.136;16.928;2023-12-29T11:02:29;99654.38;;;11.93;87.28
59475;BME280;45288;51.136;16.928;2023-12-29T11:05:06;99652.06;;;12.10;87.04
59475;BME280;45288;51.136;16.928;2023-12-29T11:07:40;99664.44;;;12.19;87.78
59475;BME280;45288;51.136;16.928;2023-12-29T11:10:07;99654.03;;;12.17;84.92
59475;BME280;45288;51.136;16.928;2023-12-29T11:12:37;99642.28;;;12.21;83.84
59475;BME280;45288;51.136;16.928;2023-12-29T11:15:05;99652.91;;;12.20;83.48
59475;BME280;45288;51.136;16.928;2023-12-29T11:17:33;99640.16;;;12.15;83.39
59475;BME280;45288;51.136;16.928;2023-12-29T11:20:03;99641.56;;;12.19;83.94
59475;BME280;45288;51.136;16.928;2023-12-29T11:22:31;99638.53;;;12.24;83.30
59475;BME280;45288;51.136;16.928;2023-12-29T11:24:58;99627.16;;;12.33;84.02
59475;BME280;45288;51.136;16.928;2023-12-29T11:27:29;99628.59;;;12.47;84.56
59475;BME280;45288;51.136;16.928;2023-12-29T11:30:03;99628.84;;;12.34;83.19
59475;BME280;45288;51.136;16.928;2023-12-29T11:35:23;99627.59;;;12.38;83.54
59475;BME280;45288;51.136;16.928;2023-12-29T11:43:26;99635.78;;;12.45;83.40
59475;BME280;45288;51.136;16.928;2023-12-29T11:45:52;99623.88;;;12.51;83.52
59475;BME280;45288;51.136;16.928;2023-12-29T11:51:29;99616.94;;;12.50;85.84
59475;BME280;45288;51.136;16.928;2023-12-29T11:53:55;99622.34;;;12.68;85.07
59475;BME280;45288;51.136;16.928;2023-12-29T11:56:21;99628.03;;;12.63;86.14
59475;BME280;45288;51.136;16.928;2023-12-29T11:58:47;99631.63;;;12.42;86.08
59475;BME280;45288;51.136;16.928;2023-12-29T12:01:14;99646.75;;;12.50;85.92
59475;BME280;45288;51.136;16.928;2023-12-29T12:03:39;99631.19;;;12.57;85.55
59475;BME280;45288;51.136;16.928;2023-12-29T12:06:05;99626.78;;;12.57;85.12
59475;BME280;45288;51.136;16.928;2023-12-29T12:08:35;99621.66;;;12.56;81.61
59475;BME280;45288;51.136;16.928;2023-12-29T12:13:57;99634.25;;;12.81;82.40
59475;BME280;45288;51.136;16.928;2023-12-29T12:19:10;99638.81;;;12.70;81.23
59475;BME280;45288;51.136;16.928;2023-12-29T12:21:37;99634.41;;;12.70;82.35
59475;BME280;45288;51.136;16.928;2023-12-29T12:24:04;99631.06;;;12.49;82.33
59475;BME280;45288;51.136;16.928;2023-12-29T12:26:30;99628.28;;;12.40;81.30
59475;BME280;45288;51.136;16.928;2023-12-29T12:28:57;99638.53;;;12.43;79.36
59475;BME280;45288;51.136;16.928;2023-12-29T12:31:23;99630.22;;;12.38;77.98
59475;BME280;45288;51.136;16.928;2023-12-29T12:33:59;99643.53;;;12.47;80.32
59475;BME280;45288;51.136;16.928;2023-12-29T12:36:28;99633.44;;;12.42;77.11
59475;BME280;45288;51.136;16.928;2023-12-29T12:38:55;99633.84;;;12.37;79.16
59475;BME280;45288;51.136;16.928;2023-12-29T12:41:22;99643.81;;;12.43;79.75
59475;BME280;45288;51.136;16.928;2023-12-29T12:44:10;99644.22;;;12.49;78.29
59475;BME280;45288;51.136;16.928;2023-12-29T12:46:50;99628.72;;;12.46;78.94
59475;BME280;45288;51.136;16.928;2023-12-29T12:49:20;99628.97;;;12.23;84.48
59475;BME280;45288;51.136;16.928;2023-12-29T12:51:46;99625.91;;;12.18;84.42
59475;BME280;45288;51.136;16.928;2023-12-29T12:54:13;99628.00;;;12.24;84.63
59475;BME280;45288;51.136;16.928;2023-12-29T12:56:42;99626.34;;;12.33;83.67
59475;BME280;45288;51.136;16.928;2023-12-29T12:59:08;99624.25;;;12.36;83.38
59475;BME280;45288;51.136;16.928;2023-12-29T13:01:36;99613.72;;;12.36;79.77
59475;BME280;45288;51.136;16.928;2023-12-29T13:04:03;99610.84;;;12.30;79.69
59475;BME280;45288;51.136;16.928;2023-12-29T13:06:32;99618.03;;;12.28;77.06
59475;BME280;45288;51.136;16.928;2023-12-29T13:08:59;99620.25;;;12.32;76.53
59475;BME280;45288;51.136;16.928;2023-12-29T13:11:25;99614.72;;;12.35;75.57